createdAt,value
2022-07-27T00:03:42.452Z,14.90
2022-07-27T00:07:45.292Z,14.90
2022-07-27T00:11:49.464Z,14.90
2022-07-27T00:15:52.707Z,14.90
2022-07-27T00:19:55.552Z,14.90
2022-07-27T00:23:58.594Z,14.90
2022-07-27T00:28:03.024Z,14.90
2022-07-27T00:32:09.576Z,14.90
2022-07-27T00:36:15.378Z,14.90
2022-07-27T00:40:18.220Z,14.90
2022-07-27T00:44:27.736Z,14.90
2022-07-27T00:48:30.612Z,14.80
2022-07-27T00:52:33.555Z,14.80
2022-07-27T00:56:36.691Z,14.80
2022-07-27T01:00:41.024Z,14.80
2022-07-27T01:04:43.853Z,14.70
2022-07-27T01:08:50.152Z,14.70
2022-07-27T01:12:52.977Z,14.70
2022-07-27T01:16:57.188Z,14.70
2022-07-27T01:21:01.236Z,14.60
2022-07-27T01:25:05.807Z,14.60
2022-07-27T01:29:09.028Z,14.50
2022-07-27T01:33:12.320Z,14.50
2022-07-27T01:41:19.603Z,14.40
2022-07-27T01:45:22.809Z,14.40
2022-07-27T01:49:25.820Z,14.40
2022-07-27T01:53:28.705Z,14.30
2022-07-27T01:57:32.883Z,14.30
2022-07-27T02:01:35.782Z,14.30
2022-07-27T02:05:39.553Z,14.30
2022-07-27T02:09:42.429Z,14.30
2022-07-27T02:13:47.565Z,14.30
2022-07-27T02:17:50.450Z,14.30
2022-07-27T02:21:53.298Z,14.30
2022-07-27T02:25:56.267Z,14.30
2022-07-27T02:30:00.624Z,14.30
2022-07-27T02:34:03.600Z,14.30
2022-07-27T02:38:06.440Z,14.30
2022-07-27T02:42:09.351Z,14.30
2022-07-27T02:46:13.882Z,14.30
2022-07-27T02:50:16.780Z,14.40
2022-07-27T02:54:19.721Z,14.40
2022-07-27T02:58:22.604Z,14.30
2022-07-27T03:02:27.010Z,14.40
2022-07-27T03:06:29.911Z,14.40
2022-07-27T03:10:33.139Z,14.40
2022-07-27T03:14:35.982Z,14.40
2022-07-27T03:18:40.185Z,14.40
2022-07-27T03:22:43.060Z,14.40
2022-07-27T03:26:46.834Z,14.40
2022-07-27T03:30:49.711Z,14.40
2022-07-27T03:34:55.705Z,14.40
2022-07-27T03:39:00.748Z,14.40
2022-07-27T03:43:07.162Z,14.40
2022-07-27T03:47:10.022Z,14.40
2022-07-27T03:51:14.624Z,14.40
2022-07-27T03:55:17.530Z,14.40
2022-07-27T03:59:20.539Z,14.40
2022-07-27T04:03:23.394Z,14.30
2022-07-27T04:07:27.578Z,14.30
2022-07-27T04:11:30.420Z,14.30
2022-07-27T04:15:33.277Z,14.30
2022-07-27T04:19:36.100Z,14.30
2022-07-27T04:23:40.342Z,14.20
2022-07-27T04:27:43.194Z,14.20
2022-07-27T04:31:46.045Z,14.10
2022-07-27T04:35:49.077Z,14.10
2022-07-27T04:39:57.345Z,14.10
2022-07-27T04:44:00.399Z,14.10
2022-07-27T04:48:06.503Z,14.10
2022-07-27T04:52:09.364Z,14.10
2022-07-27T04:56:13.566Z,14.10
2022-07-27T05:00:17.363Z,14.10
2022-07-27T05:04:20.220Z,14.20
2022-07-27T05:08:23.123Z,14.20
2022-07-27T05:12:27.303Z,14.30
2022-07-27T05:16:30.162Z,14.40
2022-07-27T05:20:33.218Z,14.40
2022-07-27T05:24:36.115Z,14.50
2022-07-27T05:28:40.308Z,14.50
2022-07-27T05:32:43.207Z,14.60
2022-07-27T05:36:46.061Z,14.70
2022-07-27T05:40:49.094Z,14.80
2022-07-27T05:44:56.104Z,14.80
2022-07-27T05:48:58.994Z,14.90
2022-07-27T05:53:01.806Z,15.00
2022-07-27T05:57:04.739Z,15.10
2022-07-27T06:05:15.844Z,15.30
2022-07-27T06:09:20.027Z,15.50
2022-07-27T06:13:28.056Z,15.60
2022-07-27T06:17:31.289Z,15.70
2022-07-27T06:21:35.468Z,15.80
2022-07-27T06:25:38.482Z,15.80
2022-07-27T06:29:41.382Z,16.00
2022-07-27T06:33:45.343Z,16.10
2022-07-27T06:37:53.120Z,16.10
2022-07-27T06:41:58.222Z,16.20
2022-07-27T06:46:03.245Z,16.30
2022-07-27T06:50:06.677Z,16.40
2022-07-27T06:54:11.381Z,16.60
2022-07-27T06:58:14.276Z,16.60
2022-07-27T07:02:17.215Z,16.70
2022-07-27T07:06:20.034Z,16.90
2022-07-27T07:10:25.010Z,17.00
2022-07-27T07:14:27.841Z,17.10
2022-07-27T07:18:30.656Z,17.20
2022-07-27T20:25:44.953Z,17.90
2022-07-27T20:29:47.892Z,18.00
2022-07-27T20:33:50.687Z,17.80
2022-07-27T20:37:53.554Z,17.70
2022-07-27T20:41:59.403Z,17.60
2022-07-27T20:46:02.353Z,17.50
2022-07-27T20:50:06.152Z,17.40
2022-07-27T20:54:08.979Z,17.30
2022-07-27T20:58:13.254Z,17.20
2022-07-27T21:02:16.240Z,17.10
2022-07-27T21:06:19.082Z,17.00
2022-07-27T21:10:22.339Z,17.00
2022-07-27T21:14:26.618Z,16.90
2022-07-27T21:18:29.488Z,16.80
2022-07-27T21:22:32.414Z,16.70
2022-07-27T21:26:35.311Z,16.60
2022-07-27T21:30:40.917Z,16.50
2022-07-27T21:34:43.805Z,16.50
2022-07-27T21:38:46.649Z,16.30
2022-07-27T21:42:50.216Z,16.30
2022-07-27T21:46:54.667Z,16.20
2022-07-27T21:50:57.495Z,16.10
2022-07-27T21:55:00.397Z,16.00
2022-07-27T21:59:03.274Z,15.90
2022-07-27T22:03:07.507Z,15.80
2022-07-27T22:07:19.378Z,15.80
2022-07-27T22:11:22.760Z,15.60
2022-07-27T22:15:25.710Z,15.60
2022-07-27T22:19:29.896Z,15.50
2022-07-27T22:23:32.805Z,15.40
2022-07-27T22:27:35.642Z,15.30
2022-07-27T22:31:38.561Z,15.20
2022-07-27T22:35:43.883Z,15.10
2022-07-27T22:39:46.805Z,15.00
2022-07-27T22:43:49.661Z,14.90
2022-07-27T22:47:53.503Z,14.90
2022-07-27T22:51:57.840Z,14.80
2022-07-27T22:56:00.874Z,14.70
2022-07-27T23:00:04.804Z,14.60
2022-07-27T23:04:07.713Z,14.50
2022-07-27T23:08:11.937Z,14.50
2022-07-27T23:12:14.794Z,14.40
2022-07-27T23:48:50.391Z,13.70
2022-07-27T23:52:53.342Z,13.70
2022-07-27T23:56:56.174Z,13.50
